createdAt,value
2023-01-12T00:00:25.145Z,89.48
2023-01-12T00:02:36.349Z,89.78
2023-01-12T00:03:36.078Z,89.58
2023-01-12T00:04:36.142Z,89.48
2023-01-12T00:05:36.160Z,89.48
2023-01-12T00:06:36.016Z,89.78
2023-01-12T00:07:36.021Z,89.89
2023-01-12T00:08:36.003Z,89.69
2023-01-12T00:09:35.997Z,89.69
2023-01-12T00:10:35.964Z,89.58
2023-01-12T00:11:35.974Z,89.48
2023-01-12T00:12:35.960Z,89.48
2023-01-12T00:13:35.939Z,89.37
2023-01-12T00:14:35.900Z,89.48
2023-01-12T00:15:35.927Z,89.27
2023-01-12T00:16:35.937Z,89.37
2023-01-12T00:17:35.933Z,89.58
2023-01-12T00:18:35.903Z,89.48
2023-01-12T00:19:35.891Z,89.58
2023-01-12T00:20:35.851Z,89.48
2023-01-12T00:21:35.849Z,89.69
2023-01-12T00:22:35.807Z,89.78
2023-01-12T00:23:35.806Z,89.89
2023-01-12T00:24:35.823Z,89.78
2023-01-12T00:25:35.814Z,89.89
2023-01-12T00:26:35.776Z,89.89
2023-01-12T00:27:35.783Z,89.89
2023-01-12T00:28:35.751Z,89.89
2023-01-12T00:29:35.763Z,89.89
2023-01-12T00:30:35.737Z,90.09
2023-01-12T00:31:35.782Z,90.09
2023-01-12T00:32:35.713Z,90.30
2023-01-12T00:33:35.906Z,90.30
2023-01-12T00:34:35.686Z,90.50
2023-01-12T00:35:35.939Z,90.61
2023-01-12T00:36:35.712Z,90.61
2023-01-12T00:37:35.665Z,90.61
2023-01-12T00:38:35.658Z,90.50
2023-01-12T00:39:35.722Z,90.71
2023-01-12T00:40:35.627Z,90.71
2023-01-12T00:41:35.649Z,90.81
2023-01-12T00:42:35.648Z,90.91
2023-01-12T00:43:35.608Z,90.91
2023-01-12T00:44:35.619Z,90.91
2023-01-12T00:45:35.557Z,90.91
2023-01-12T00:46:35.545Z,90.91
2023-01-12T00:47:35.768Z,91.02
2023-01-12T00:48:35.500Z,91.12
2023-01-12T00:49:35.505Z,91.33
2023-01-12T00:50:35.498Z,91.33
2023-01-12T00:51:35.504Z,91.12
2023-01-12T00:52:35.535Z,91.22
2023-01-12T00:53:35.484Z,91.42
2023-01-12T00:54:35.458Z,91.63
2023-01-12T00:55:35.453Z,91.53
2023-01-12T00:56:35.429Z,91.63
2023-01-12T00:57:35.470Z,91.74
2023-01-12T00:58:35.389Z,91.63
2023-01-12T00:59:35.419Z,91.63
2023-01-12T01:00:37.067Z,91.84
2023-01-12T01:01:35.480Z,91.74
2023-01-12T01:02:35.398Z,91.74
2023-01-12T01:03:35.383Z,91.94
2023-01-12T01:04:35.329Z,91.94
2023-01-12T01:05:35.304Z,92.14
2023-01-12T01:06:35.317Z,92.14
2023-01-12T01:07:35.355Z,92.14
2023-01-12T01:08:35.314Z,92.25
2023-01-12T01:09:35.297Z,92.40
2023-01-12T01:10:35.236Z,91.94
2023-01-12T01:11:35.264Z,91.84
2023-01-12T01:12:35.215Z,92.04
2023-01-12T01:13:35.252Z,92.04
2023-01-12T01:14:35.200Z,92.04
2023-01-12T01:15:35.261Z,92.04
2023-01-12T01:16:35.213Z,92.14
2023-01-12T01:17:35.229Z,92.14
2023-01-12T01:18:35.178Z,92.04
2023-01-12T01:19:35.128Z,92.04
2023-01-12T01:20:35.127Z,92.35
2023-01-12T01:21:35.110Z,92.25
2023-01-12T01:22:35.133Z,92.46
2023-01-12T01:23:35.137Z,92.76
2023-01-12T01:24:35.087Z,93.17
2023-01-12T01:25:35.058Z,93.48
2023-01-12T01:26:35.059Z,93.68
2023-01-12T01:27:35.062Z,93.89
2023-01-12T01:28:35.041Z,93.93
2023-01-12T01:29:35.062Z,93.93
2023-01-12T01:30:35.058Z,94.14
2023-01-12T01:31:35.045Z,94.34
2023-01-12T01:32:35.014Z,94.65
2023-01-12T01:33:35.015Z,94.65
2023-01-12T01:34:34.998Z,94.55
2023-01-12T01:35:34.971Z,94.34
2023-01-12T01:36:34.955Z,94.24
2023-01-12T01:37:35.023Z,94.24
2023-01-12T01:38:34.938Z,94.14
2023-01-12T01:39:35.010Z,93.93
2023-01-12T01:40:34.900Z,93.93
2023-01-12T01:41:34.899Z,93.73
2023-01-12T01:42:34.908Z,93.63
2023-01-12T01:43:34.868Z,93.63
2023-01-12T01:44:34.894Z,93.63
2023-01-12T01:45:34.850Z,93.59
2023-01-12T01:46:34.901Z,93.48
2023-01-12T01:47:34.820Z,93.27
2023-01-12T01:48:34.819Z,93.27
2023-01-12T01:49:34.798Z,93.27
2023-01-12T01:50:37.283Z,93.17
2023-01-12T01:51:34.753Z,93.07
2023-01-12T01:52:34.777Z,93.27
2023-01-12T01:53:34.731Z,93.27
2023-01-12T01:54:34.732Z,93.17
2023-01-12T01:55:34.855Z,93.17
2023-01-12T01:56:34.709Z,93.17
2023-01-12T01:57:34.702Z,93.17
2023-01-12T01:58:34.685Z,93.07
2023-01-12T01:59:34.660Z,92.97
2023-01-12T02:00:34.654Z,92.97
2023-01-12T02:01:34.851Z,92.86
2023-01-12T02:02:34.670Z,92.55
2023-01-12T02:03:36.884Z,92.04
2023-01-12T02:04:34.605Z,91.69
2023-01-12T02:05:34.619Z,91.38
2023-01-12T02:06:34.741Z,91.28
2023-01-12T02:07:34.571Z,91.08
2023-01-12T02:08:34.584Z,91.18
2023-01-12T02:09:34.537Z,91.49
2023-01-12T02:10:34.562Z,91.49
2023-01-12T02:11:34.563Z,91.59
2023-01-12T02:12:34.565Z,91.59
2023-01-12T02:13:34.533Z,91.59
2023-01-12T02:14:34.491Z,91.49
2023-01-12T02:15:34.495Z,91.49
2023-01-12T02:16:34.467Z,91.59
2023-01-12T02:17:34.451Z,91.80
2023-01-12T02:18:34.508Z,91.59
2023-01-12T02:19:34.451Z,91.80
2023-01-12T02:20:34.447Z,91.90
2023-01-12T02:21:34.391Z,92.00
2023-01-12T02:22:34.445Z,91.80
2023-01-12T02:23:34.369Z,91.90
2023-01-12T02:24:34.396Z,92.00
2023-01-12T02:25:34.351Z,92.00
2023-01-12T02:26:35.015Z,92.21
2023-01-12T02:27:34.318Z,92.10
2023-01-12T02:28:34.373Z,92.21
2023-01-12T02:29:34.307Z,92.21
2023-01-12T02:30:34.303Z,92.10
2023-01-12T02:31:34.310Z,92.00
2023-01-12T02:32:34.318Z,92.10
2023-01-12T02:33:34.278Z,92.10
2023-01-12T02:34:34.256Z,91.80
2023-01-12T02:35:34.229Z,91.69
2023-01-12T02:36:34.281Z,91.69
2023-01-12T02:37:34.227Z,91.59
2023-01-12T02:38:34.258Z,91.59
2023-01-12T02:39:34.210Z,91.59
2023-01-12T02:40:34.184Z,91.59
2023-01-12T02:41:34.163Z,91.59
2023-01-12T02:42:34.188Z,91.59
2023-01-12T02:43:34.164Z,91.59
2023-01-12T02:44:34.153Z,91.59
2023-01-12T02:45:34.130Z,91.69
2023-01-12T02:46:34.130Z,91.69
2023-01-12T02:47:34.110Z,91.69
2023-01-12T02:48:34.125Z,91.69
2023-01-12T02:49:34.063Z,91.69
2023-01-12T02:50:34.066Z,91.69
2023-01-12T02:51:34.070Z,91.80
2023-01-12T02:52:34.101Z,91.90
2023-01-12T02:53:34.044Z,91.80
2023-01-12T02:54:34.071Z,91.69
2023-01-12T02:55:34.021Z,91.90
2023-01-12T02:56:33.996Z,92.10
2023-01-12T02:57:33.988Z,92.00
2023-01-12T02:58:33.989Z,92.00
2023-01-12T02:59:33.976Z,92.00
2023-01-12T03:00:34.003Z,92.21
2023-01-12T03:01:34.018Z,92.00
2023-01-12T03:02:33.953Z,92.00
2023-01-12T03:03:33.944Z,91.90
2023-01-12T03:04:33.939Z,92.21
2023-01-12T03:05:33.904Z,92.21
2023-01-12T03:06:33.903Z,92.51
2023-01-12T03:07:33.876Z,92.72
2023-01-12T03:08:33.925Z,92.51
2023-01-12T03:09:33.844Z,92.72
2023-01-12T03:10:33.831Z,92.82
2023-01-12T03:11:33.825Z,93.02
2023-01-12T03:12:33.837Z,93.13
2023-01-12T03:13:33.799Z,93.17
2023-01-12T03:14:33.783Z,93.38
2023-01-12T03:15:33.785Z,93.59
2023-01-12T03:16:33.803Z,93.17
2023-01-12T03:17:33.767Z,93.27
2023-01-12T03:18:33.720Z,93.48
2023-01-12T03:19:33.753Z,93.48
2023-01-12T03:20:33.721Z,93.17
2023-01-12T03:21:33.722Z,93.27
2023-01-12T03:22:36.245Z,93.27
2023-01-12T03:23:33.698Z,93.48
2023-01-12T03:24:33.681Z,93.48
2023-01-12T03:25:33.674Z,93.48
2023-01-12T03:26:33.636Z,93.59
2023-01-12T03:27:33.641Z,93.38
2023-01-12T03:28:33.602Z,93.17
2023-01-12T03:29:33.642Z,93.27
2023-01-12T03:30:33.572Z,93.17
2023-01-12T03:31:33.706Z,92.97
2023-01-12T03:32:33.580Z,92.97
2023-01-12T03:33:33.590Z,93.17
2023-01-12T03:34:33.550Z,93.17
2023-01-12T03:35:33.557Z,93.38
2023-01-12T03:36:33.926Z,93.27
2023-01-12T03:37:33.513Z,93.38
2023-01-12T03:38:33.491Z,93.38
2023-01-12T03:39:33.484Z,93.38
2023-01-12T03:40:33.457Z,93.23
2023-01-12T03:41:33.494Z,93.23
2023-01-12T03:42:33.563Z,93.02
2023-01-12T03:43:33.435Z,93.02
2023-01-12T03:44:33.436Z,93.02
2023-01-12T03:45:33.416Z,93.13
2023-01-12T03:46:33.422Z,92.93
2023-01-12T03:47:33.386Z,92.82
2023-01-12T03:48:33.387Z,92.21
2023-01-12T03:49:33.420Z,92.10
2023-01-12T03:50:33.369Z,91.90
2023-01-12T03:51:33.338Z,92.00
2023-01-12T03:52:33.347Z,92.00
2023-01-12T03:53:33.319Z,92.21
2023-01-12T03:54:33.297Z,92.21
2023-01-12T03:55:33.323Z,92.21
2023-01-12T03:56:33.268Z,92.51
2023-01-12T03:57:33.326Z,92.72
2023-01-12T03:58:33.250Z,92.61
2023-01-12T03:59:33.269Z,92.61
2023-01-12T04:00:33.265Z,92.72
2023-01-12T04:01:33.346Z,92.72
2023-01-12T04:02:33.203Z,92.51
2023-01-12T04:03:33.286Z,92.72
2023-01-12T04:04:33.216Z,92.72
2023-01-12T04:05:33.206Z,92.82
2023-01-12T04:06:33.179Z,92.82
2023-01-12T04:07:33.153Z,92.93
2023-01-12T04:08:33.157Z,92.82
2023-01-12T04:09:33.177Z,92.82
2023-01-12T04:10:33.128Z,92.93
2023-01-12T04:11:33.128Z,92.82
2023-01-12T04:12:33.080Z,92.82
2023-01-12T04:13:33.108Z,92.93
2023-01-12T04:14:33.109Z,92.93
2023-01-12T04:15:33.078Z,93.02
2023-01-12T04:16:33.123Z,92.93
2023-01-12T04:17:33.058Z,92.93
2023-01-12T04:18:33.043Z,92.51
2023-01-12T04:19:33.014Z,92.82
2023-01-12T04:20:33.023Z,93.02
2023-01-12T04:21:33.043Z,93.02
2023-01-12T04:22:32.988Z,93.33
2023-01-12T04:23:32.989Z,93.23
2023-01-12T04:24:32.968Z,92.82
2023-01-12T04:25:32.967Z,92.93
2023-01-12T04:26:32.935Z,92.93
2023-01-12T04:27:32.921Z,92.93
2023-01-12T04:28:32.892Z,92.82
2023-01-12T04:29:32.893Z,92.82
2023-01-12T04:30:32.928Z,92.82
2023-01-12T04:31:32.904Z,92.82
2023-01-12T04:32:32.914Z,92.93
2023-01-12T04:33:32.850Z,92.93
2023-01-12T04:34:32.842Z,92.82
2023-01-12T04:35:32.907Z,92.72
2023-01-12T04:36:32.799Z,92.61
2023-01-12T04:37:32.909Z,92.72
2023-01-12T04:38:32.803Z,92.51
2023-01-12T04:39:32.815Z,92.61
2023-01-12T04:40:32.747Z,92.82
2023-01-12T04:41:32.755Z,93.02
2023-01-12T04:43:43.119Z,93.23
2023-01-12T04:44:43.044Z,93.44
2023-01-12T04:45:43.064Z,93.44
2023-01-12T04:46:43.066Z,93.74
2023-01-12T04:47:43.050Z,93.85
2023-01-12T04:48:43.004Z,93.95
2023-01-12T04:49:42.995Z,93.95
2023-01-12T04:50:43.000Z,94.05
2023-01-12T04:51:43.001Z,94.15
2023-01-12T04:52:42.972Z,94.30
2023-01-12T04:53:42.999Z,94.30
2023-01-12T04:54:42.966Z,94.30
2023-01-12T04:55:42.960Z,94.30
2023-01-12T04:56:42.911Z,94.10
2023-01-12T04:57:42.926Z,94.30
2023-01-12T04:58:42.876Z,94.40
2023-01-12T04:59:42.887Z,94.40
2023-01-12T05:00:42.880Z,94.61
2023-01-12T05:01:43.003Z,94.61
2023-01-12T05:02:42.835Z,94.40
2023-01-12T05:03:42.889Z,93.99
2023-01-12T05:04:42.843Z,94.20
2023-01-12T05:05:42.836Z,94.30
2023-01-12T05:06:42.798Z,93.79
2023-01-12T05:07:42.792Z,93.99
2023-01-12T05:08:42.788Z,93.89
2023-01-12T05:09:42.767Z,93.68
2023-01-12T05:10:42.826Z,93.89
2023-01-12T05:11:42.759Z,94.10
2023-01-12T05:12:42.764Z,94.30
2023-01-12T05:13:42.718Z,94.51
2023-01-12T05:14:42.711Z,94.30
2023-01-12T05:15:42.688Z,94.51
2023-01-12T05:16:42.746Z,94.81
2023-01-12T05:17:42.660Z,94.92
2023-01-12T05:18:42.687Z,95.02
2023-01-12T05:19:42.667Z,95.02
2023-01-12T05:20:42.670Z,95.12
2023-01-12T05:21:42.637Z,94.92
2023-01-12T05:22:42.658Z,94.92
2023-01-12T05:23:42.681Z,94.92
2023-01-12T05:24:42.617Z,94.92
2023-01-12T05:25:42.616Z,94.51
2023-01-12T05:26:42.689Z,94.40
2023-01-12T05:27:42.570Z,94.40
2023-01-12T05:28:42.552Z,94.30
2023-01-12T05:29:42.521Z,94.40
2023-01-12T05:30:42.594Z,94.51
2023-01-12T05:31:42.499Z,94.61
2023-01-12T05:32:42.546Z,94.71
2023-01-12T05:33:42.540Z,94.71
2023-01-12T05:34:42.481Z,94.92
2023-01-12T05:35:42.497Z,94.92
2023-01-12T05:36:42.455Z,94.61
2023-01-12T05:37:42.458Z,94.61
2023-01-12T05:38:42.504Z,94.71
2023-01-12T05:39:42.414Z,94.61
2023-01-12T05:40:42.420Z,94.65
2023-01-12T05:41:42.385Z,94.85
2023-01-12T05:42:42.385Z,94.61
2023-01-12T05:43:42.423Z,94.04
2023-01-12T05:44:42.381Z,94.24
2023-01-12T05:45:42.381Z,94.51
2023-01-12T05:46:42.395Z,94.65
2023-01-12T05:47:42.324Z,95.06
2023-01-12T05:48:42.344Z,95.27
2023-01-12T05:49:42.334Z,95.37
2023-01-12T05:50:42.296Z,95.27
2023-01-12T05:51:42.297Z,95.17
2023-01-12T05:52:42.267Z,95.37
2023-01-12T05:53:42.286Z,95.57
2023-01-12T05:54:42.295Z,95.57
2023-01-12T05:55:42.226Z,95.47
2023-01-12T05:56:42.232Z,95.47
2023-01-12T05:57:42.275Z,95.37
2023-01-12T05:58:42.198Z,95.47
2023-01-12T05:59:42.223Z,95.47
2023-01-12T06:00:42.176Z,95.57
2023-01-12T06:01:42.153Z,95.57
2023-01-12T06:02:42.215Z,95.37
2023-01-12T06:03:42.158Z,95.47
2023-01-12T06:04:42.171Z,95.47
2023-01-12T06:05:42.109Z,95.47
2023-01-12T06:06:42.110Z,95.47
2023-01-12T06:07:42.079Z,95.57
2023-01-12T06:08:42.106Z,95.37
2023-01-12T06:09:42.117Z,95.27
2023-01-12T06:10:42.060Z,95.06
2023-01-12T06:11:42.039Z,94.85
2023-01-12T06:12:42.039Z,94.65
2023-01-12T06:13:42.017Z,94.34
2023-01-12T06:14:42.117Z,94.24
2023-01-12T06:15:42.084Z,94.24
2023-01-12T06:16:42.027Z,94.34
2023-01-12T06:17:41.986Z,94.34
2023-01-12T06:18:42.951Z,94.34
2023-01-12T06:19:41.970Z,94.34
2023-01-12T06:20:41.945Z,94.04
2023-01-12T06:21:41.949Z,93.42
2023-01-12T06:22:41.922Z,93.32
2023-01-12T06:23:41.938Z,93.73
2023-01-12T06:24:41.946Z,93.52
2023-01-12T06:25:41.872Z,93.63
2023-01-12T06:26:41.919Z,93.93
2023-01-12T06:27:41.883Z,94.24
2023-01-12T06:28:41.877Z,94.24
2023-01-12T06:29:41.823Z,94.04
2023-01-12T06:30:41.824Z,94.24
2023-01-12T06:31:41.828Z,94.45
2023-01-12T06:32:41.851Z,94.65
2023-01-12T06:33:41.786Z,94.76
2023-01-12T06:34:41.901Z,94.76
2023-01-12T06:35:41.760Z,94.85
2023-01-12T06:36:41.790Z,94.96
2023-01-12T06:37:41.778Z,95.06
2023-01-12T06:38:41.801Z,94.24
2023-01-12T06:39:41.742Z,94.34
2023-01-12T06:40:41.744Z,94.45
2023-01-12T06:41:41.741Z,94.85
2023-01-12T06:42:41.719Z,94.85
2023-01-12T06:43:41.702Z,94.96
2023-01-12T06:44:41.670Z,95.17
2023-01-12T06:45:41.657Z,94.96
2023-01-12T06:46:41.672Z,95.06
2023-01-12T06:47:41.637Z,95.17
2023-01-12T06:48:41.665Z,95.27
2023-01-12T06:49:41.597Z,95.27
2023-01-12T06:50:41.598Z,95.17
2023-01-12T06:51:41.568Z,95.17
2023-01-12T06:52:41.641Z,94.85
2023-01-12T06:53:41.558Z,94.65
2023-01-12T06:54:41.550Z,94.65
2023-01-12T06:55:41.533Z,94.61
2023-01-12T06:56:41.531Z,94.51
2023-01-12T06:57:41.541Z,94.61
2023-01-12T06:58:41.526Z,94.30
2023-01-12T06:59:41.515Z,94.20
2023-01-12T07:00:41.510Z,94.20
2023-01-12T07:01:41.653Z,94.30
2023-01-12T07:02:41.466Z,94.30
2023-01-12T07:03:41.457Z,94.30
2023-01-12T07:04:41.441Z,93.99
2023-01-12T07:05:41.446Z,93.79
2023-01-12T07:06:41.501Z,93.79
2023-01-12T07:07:41.417Z,93.68
2023-01-12T07:08:41.427Z,93.68
2023-01-12T07:09:41.373Z,93.99
2023-01-12T07:10:41.374Z,94.10
2023-01-12T07:11:41.379Z,94.30
2023-01-12T07:12:41.395Z,94.40
2023-01-12T07:13:41.348Z,94.40
2023-01-12T07:14:41.349Z,94.40
2023-01-12T07:15:41.335Z,94.20
2023-01-12T07:16:41.303Z,94.30
2023-01-12T07:17:41.321Z,94.40
2023-01-12T07:18:41.282Z,94.30
2023-01-12T07:19:41.723Z,94.40
2023-01-12T07:20:41.281Z,94.61
2023-01-12T07:21:41.235Z,94.71
2023-01-12T07:22:41.261Z,94.81
2023-01-12T07:23:41.262Z,94.71
2023-01-12T07:24:41.241Z,94.51
2023-01-12T07:25:41.249Z,94.61
2023-01-12T07:26:41.343Z,94.61
2023-01-12T07:27:41.185Z,94.40
2023-01-12T07:28:41.228Z,94.30
2023-01-12T07:29:41.166Z,94.40
2023-01-12T07:30:41.175Z,94.51
2023-01-12T07:31:41.137Z,94.40
2023-01-12T07:32:41.154Z,94.30
2023-01-12T07:33:41.113Z,94.40
2023-01-12T07:34:41.115Z,94.51
2023-01-12T07:35:41.119Z,94.61
2023-01-12T07:36:41.097Z,94.92
2023-01-12T07:37:41.072Z,94.92
2023-01-12T07:38:41.092Z,94.92
2023-01-12T07:39:41.043Z,95.23
2023-01-12T07:40:41.046Z,95.12
2023-01-12T07:41:41.060Z,95.23
2023-01-12T07:42:41.006Z,95.32
2023-01-12T07:43:40.979Z,95.43
2023-01-12T07:44:41.015Z,95.32
2023-01-12T07:45:40.949Z,95.23
2023-01-12T07:46:41.010Z,95.32
2023-01-12T07:47:41.135Z,94.98
2023-01-12T07:48:40.930Z,95.28
2023-01-12T07:49:40.922Z,95.28
2023-01-12T07:50:40.946Z,95.39
2023-01-12T07:51:40.918Z,95.28
2023-01-12T07:52:40.917Z,95.39
2023-01-12T07:53:40.894Z,95.49
2023-01-12T07:54:40.878Z,95.39
2023-01-12T07:55:40.889Z,95.28
2023-01-12T07:56:42.958Z,95.49
2023-01-12T07:57:40.819Z,95.59
2023-01-12T07:58:40.847Z,95.59
2023-01-12T07:59:40.829Z,95.49
2023-01-12T08:00:40.814Z,95.49
2023-01-12T08:01:40.877Z,95.59
2023-01-12T08:02:40.863Z,95.49
2023-01-12T08:03:40.790Z,95.49
2023-01-12T08:04:40.757Z,95.59
2023-01-12T08:05:40.754Z,95.59
2023-01-12T08:06:40.723Z,95.39
2023-01-12T08:07:40.732Z,95.39
2023-01-12T08:08:40.733Z,95.28
2023-01-12T08:09:40.682Z,95.39
2023-01-12T08:10:40.674Z,95.28
2023-01-12T08:11:40.661Z,95.39
2023-01-12T08:12:40.684Z,95.59
2023-01-12T08:13:40.659Z,95.65
2023-01-12T08:14:40.660Z,95.65
2023-01-12T08:15:40.630Z,95.86
2023-01-12T08:16:40.604Z,95.75
2023-01-12T08:17:40.618Z,95.65
2023-01-12T08:18:40.606Z,95.65
2023-01-12T08:19:40.587Z,95.86
2023-01-12T08:20:40.610Z,95.95
2023-01-12T08:21:40.535Z,95.65
2023-01-12T08:22:40.560Z,95.44
2023-01-12T08:23:41.829Z,95.44
2023-01-12T08:24:40.539Z,95.54
2023-01-12T08:25:40.611Z,95.40
2023-01-12T08:26:40.494Z,95.50
2023-01-12T08:27:40.513Z,95.40
2023-01-12T08:28:40.511Z,95.40
2023-01-12T08:29:40.489Z,95.20
2023-01-12T08:30:40.487Z,95.20
2023-01-12T08:31:40.545Z,95.40
2023-01-12T08:32:40.447Z,95.40
2023-01-12T08:33:40.400Z,95.50
2023-01-12T08:34:43.058Z,95.40
2023-01-12T08:35:40.368Z,95.09
2023-01-12T08:36:40.689Z,95.09
2023-01-12T08:37:40.399Z,94.99
2023-01-12T08:38:40.356Z,95.09
2023-01-12T08:39:40.359Z,95.20
2023-01-12T08:40:40.332Z,94.99
2023-01-12T08:41:40.327Z,95.29
2023-01-12T08:42:42.008Z,95.29
2023-01-12T08:43:40.308Z,95.50
2023-01-12T08:44:40.318Z,95.40
2023-01-12T08:45:40.262Z,95.40
2023-01-12T08:46:40.404Z,95.40
2023-01-12T08:47:40.257Z,95.20
2023-01-12T08:48:40.231Z,95.20
2023-01-12T08:49:40.235Z,95.15
2023-01-12T08:50:40.211Z,95.25
2023-01-12T08:51:40.223Z,95.36
2023-01-12T08:52:40.228Z,95.36
2023-01-12T08:53:40.187Z,95.36
2023-01-12T08:54:40.196Z,95.36
2023-01-12T08:55:40.133Z,95.36
2023-01-12T08:56:40.167Z,95.46
2023-01-12T08:57:40.178Z,95.70
2023-01-12T08:58:40.135Z,95.76
2023-01-12T08:59:40.122Z,95.81
2023-01-12T09:00:40.167Z,95.70
2023-01-12T09:01:40.344Z,95.66
2023-01-12T09:02:40.118Z,95.97
2023-01-12T09:03:40.093Z,95.87
2023-01-12T09:04:40.072Z,95.87
2023-01-12T09:05:40.033Z,95.66
2023-01-12T09:06:40.063Z,95.46
2023-01-12T09:07:40.065Z,95.36
2023-01-12T09:08:40.028Z,95.25
2023-01-12T09:09:40.012Z,95.25
2023-01-12T09:10:40.018Z,95.25
2023-01-12T09:11:39.960Z,95.25
2023-01-12T09:12:39.995Z,95.36
2023-01-12T09:13:40.034Z,95.05
2023-01-12T09:14:39.970Z,95.05
2023-01-12T09:15:39.909Z,95.05
2023-01-12T09:16:39.966Z,94.95
2023-01-12T09:17:39.915Z,95.05
2023-01-12T09:18:39.930Z,95.15
2023-01-12T09:19:39.876Z,94.84
2023-01-12T09:20:39.886Z,95.05
2023-01-12T09:21:39.855Z,95.15
2023-01-12T09:22:39.840Z,95.05
2023-01-12T09:23:39.838Z,94.54
2023-01-12T09:24:39.838Z,94.43
2023-01-12T09:25:39.843Z,94.49
2023-01-12T09:26:39.846Z,94.59
2023-01-12T09:27:39.801Z,94.39
2023-01-12T09:28:39.785Z,94.29
2023-01-12T09:29:39.789Z,94.39
2023-01-12T09:30:39.754Z,94.39
2023-01-12T09:31:39.784Z,94.29
2023-01-12T09:32:39.730Z,94.18
2023-01-12T09:33:39.732Z,94.39
2023-01-12T09:34:39.724Z,94.39
2023-01-12T09:35:39.681Z,94.49
2023-01-12T09:36:39.689Z,94.29
2023-01-12T09:37:39.672Z,94.18
2023-01-12T09:38:39.691Z,94.18
2023-01-12T09:39:39.648Z,94.08
2023-01-12T09:40:39.639Z,93.84
2023-01-12T09:41:39.689Z,93.73
2023-01-12T09:42:39.597Z,93.84
2023-01-12T09:43:39.642Z,93.93
2023-01-12T09:44:39.584Z,93.84
2023-01-12T09:45:39.628Z,93.93
2023-01-12T09:46:39.557Z,93.84
2023-01-12T09:47:39.560Z,93.63
2023-01-12T09:48:39.559Z,93.63
2023-01-12T09:49:39.588Z,93.63
2023-01-12T09:50:39.542Z,93.84
2023-01-12T09:51:39.537Z,93.73
2023-01-12T09:52:39.486Z,93.73
2023-01-12T09:53:39.509Z,93.73
2023-01-12T09:54:39.511Z,93.63
2023-01-12T09:55:39.486Z,93.52
2023-01-12T09:56:39.467Z,93.43
2023-01-12T09:57:39.435Z,93.63
2023-01-12T09:58:39.416Z,93.43
2023-01-12T09:59:39.456Z,93.32
2023-01-12T10:00:39.412Z,93.43
2023-01-12T10:01:39.443Z,93.52
2023-01-12T10:02:39.492Z,93.32
2023-01-12T10:03:39.439Z,93.22
2023-01-12T10:04:39.425Z,93.43
2023-01-12T10:05:40.116Z,93.38
2023-01-12T10:06:39.325Z,93.32
2023-01-12T10:07:41.473Z,93.38
2023-01-12T10:08:39.328Z,93.28
2023-01-12T10:09:39.329Z,93.28
2023-01-12T10:10:39.375Z,93.28
2023-01-12T10:11:39.304Z,93.38
2023-01-12T10:12:39.285Z,93.38
2023-01-12T10:13:39.286Z,93.48
2023-01-12T10:14:39.258Z,93.38
2023-01-12T10:15:39.291Z,93.18
2023-01-12T10:16:39.466Z,93.07
2023-01-12T10:17:50.791Z,92.66
2023-01-12T10:18:40.188Z,92.56
2023-01-12T10:19:39.192Z,92.66
2023-01-12T10:20:39.165Z,92.66
2023-01-12T10:21:39.200Z,92.77
2023-01-12T10:22:39.171Z,92.66
2023-01-12T10:23:39.158Z,92.56
2023-01-12T10:24:39.156Z,92.56
2023-01-12T10:25:39.171Z,92.56
2023-01-12T10:26:39.115Z,92.62
2023-01-12T10:27:39.128Z,92.46
2023-01-12T10:28:39.130Z,92.66
2023-01-12T10:29:39.100Z,92.83
2023-01-12T10:30:45.540Z,92.46
2023-01-12T10:31:39.116Z,92.52
2023-01-12T10:32:41.874Z,92.32
2023-01-12T10:33:39.100Z,92.21
2023-01-12T10:34:39.033Z,92.21
2023-01-12T10:35:39.013Z,92.32
2023-01-12T10:36:38.984Z,92.21
2023-01-12T10:37:38.990Z,92.21
2023-01-12T10:38:39.070Z,91.91
2023-01-12T10:39:39.726Z,91.80
2023-01-12T10:40:38.956Z,91.91
2023-01-12T10:41:38.987Z,92.01
2023-01-12T10:42:38.918Z,92.11
2023-01-12T10:43:47.647Z,92.32
2023-01-12T10:44:38.918Z,92.52
2023-01-12T10:45:38.968Z,92.93
2023-01-12T10:46:38.905Z,93.33
2023-01-12T10:47:38.907Z,93.69
2023-01-12T10:48:38.894Z,94.20
2023-01-12T10:49:38.915Z,94.51
2023-01-12T10:50:38.857Z,94.81
2023-01-12T10:51:38.880Z,94.81
2023-01-12T10:52:38.805Z,94.92
2023-01-12T10:53:38.811Z,94.81
2023-01-12T10:54:38.864Z,94.81
2023-01-12T10:55:38.811Z,94.81
2023-01-12T10:56:38.767Z,95.02
2023-01-12T10:57:38.790Z,95.32
2023-01-12T10:58:38.735Z,95.22
2023-01-12T10:59:38.762Z,95.32
2023-01-12T11:00:38.768Z,95.43
2023-01-12T11:01:38.774Z,95.43
2023-01-12T11:02:38.732Z,95.22
2023-01-12T11:03:38.709Z,95.43
2023-01-12T11:04:38.672Z,95.53
2023-01-12T11:05:38.893Z,95.73
2023-01-12T11:06:38.650Z,95.73
2023-01-12T11:07:38.656Z,95.73
2023-01-12T11:08:38.659Z,95.63
2023-01-12T11:09:38.647Z,95.32
2023-01-12T11:10:38.627Z,95.43
2023-01-12T11:11:38.607Z,95.63
2023-01-12T11:12:38.608Z,95.84
2023-01-12T11:13:38.599Z,96.34
2023-01-12T11:14:38.632Z,96.66
2023-01-12T11:15:38.595Z,96.75
2023-01-12T11:16:38.616Z,96.75
2023-01-12T11:17:38.574Z,96.75
2023-01-12T11:18:38.548Z,96.55
2023-01-12T11:19:38.553Z,96.66
2023-01-12T11:20:38.515Z,96.75
2023-01-12T11:21:38.523Z,96.96
2023-01-12T11:22:38.473Z,96.96
2023-01-12T11:23:38.533Z,96.86
2023-01-12T11:24:38.488Z,96.75
2023-01-12T11:25:38.480Z,96.75
2023-01-12T11:26:38.447Z,96.55
2023-01-12T11:27:38.449Z,96.34
2023-01-12T11:28:38.428Z,96.34
2023-01-12T11:29:39.363Z,95.63
2023-01-12T11:30:38.483Z,95.53
2023-01-12T11:31:38.380Z,95.63
2023-01-12T11:32:38.400Z,95.32
2023-01-12T11:33:38.388Z,95.32
2023-01-12T11:34:38.366Z,95.43
2023-01-12T11:35:38.360Z,95.32
2023-01-12T11:36:38.382Z,95.53
2023-01-12T11:37:38.337Z,95.73
2023-01-12T11:38:38.342Z,95.73
2023-01-12T11:39:38.285Z,95.84
2023-01-12T11:40:38.293Z,96.14
2023-01-12T11:41:38.278Z,96.25
2023-01-12T11:42:38.272Z,96.34
2023-01-12T11:43:38.276Z,96.34
2023-01-12T11:44:38.217Z,96.25
2023-01-12T11:45:38.241Z,96.25
2023-01-12T11:46:38.196Z,96.45
2023-01-12T11:47:40.236Z,96.75
2023-01-12T11:48:38.225Z,96.86
2023-01-12T11:49:38.205Z,96.96
2023-01-12T11:50:38.158Z,96.75
2023-01-12T11:51:38.149Z,96.86
2023-01-12T11:52:38.144Z,96.96
2023-01-12T11:53:40.114Z,96.96
2023-01-12T11:54:38.099Z,97.06
2023-01-12T11:55:38.107Z,97.16
2023-01-12T11:56:38.103Z,97.06
2023-01-12T11:57:38.104Z,97.16
2023-01-12T11:58:38.092Z,97.16
2023-01-12T11:59:39.751Z,97.00
2023-01-12T12:00:38.030Z,97.06
2023-01-12T12:01:38.055Z,96.86
2023-01-12T12:02:38.269Z,96.86
2023-01-12T12:03:38.072Z,96.96
2023-01-12T12:04:37.991Z,97.06
2023-01-12T12:05:39.395Z,96.86
2023-01-12T12:06:38.014Z,96.66
2023-01-12T12:07:37.961Z,96.34
2023-01-12T12:08:37.988Z,96.45
2023-01-12T12:09:37.976Z,96.55
2023-01-12T12:10:37.944Z,96.45
2023-01-12T12:11:39.820Z,96.45
2023-01-12T12:12:37.897Z,96.55
2023-01-12T12:13:37.983Z,96.55
2023-01-12T12:14:37.869Z,96.86
2023-01-12T12:15:37.921Z,96.66
2023-01-12T12:16:37.869Z,96.66
2023-01-12T12:17:39.277Z,96.75
2023-01-12T12:18:37.847Z,96.55
2023-01-12T12:19:37.880Z,96.45
2023-01-12T12:20:37.831Z,96.34
2023-01-12T12:21:37.792Z,96.14
2023-01-12T12:22:37.782Z,96.14
2023-01-12T12:23:38.607Z,96.04
2023-01-12T12:24:37.770Z,95.84
2023-01-12T12:25:37.785Z,95.73
2023-01-12T12:26:37.735Z,95.63
2023-01-12T12:27:37.745Z,95.84
2023-01-12T12:28:37.732Z,96.04
2023-01-12T12:29:38.433Z,95.94
2023-01-12T12:30:37.764Z,96.14
2023-01-12T12:31:37.686Z,96.45
2023-01-12T12:32:37.683Z,96.45
2023-01-12T12:33:37.686Z,96.45
2023-01-12T12:34:37.641Z,96.45
2023-01-12T12:35:37.636Z,96.45
2023-01-12T12:36:37.616Z,96.75
2023-01-12T12:37:37.626Z,97.16
2023-01-12T12:38:37.619Z,97.27
2023-01-12T12:39:37.726Z,97.47
2023-01-12T12:40:37.574Z,97.57
2023-01-12T12:41:37.594Z,97.67
2023-01-12T12:42:37.570Z,97.67
2023-01-12T12:43:37.543Z,97.78
2023-01-12T12:44:37.544Z,97.67
2023-01-12T12:45:37.543Z,97.88
2023-01-12T12:46:37.591Z,98.08
2023-01-12T12:47:37.524Z,98.19
2023-01-12T12:48:37.500Z,98.19
2023-01-12T12:49:37.473Z,98.08
2023-01-12T12:50:37.499Z,97.98
2023-01-12T12:51:37.489Z,97.98
2023-01-12T12:52:37.462Z,97.98
2023-01-12T12:53:37.433Z,97.88
2023-01-12T12:54:37.440Z,98.08